Terminal Aerodrome Forecast
Issued by NWS Buffalo, NY

Home | Current Version | Previous Version | Text Only | Print | Product List | Glossary On
Versions: 1 2 3 4 5 6 7 8 9 10 11 12 13 14 15 16 17 18 19 20 21 22 23 24 25 26 27
405
FTUS41 KBUF 071159 AAA
TAFART
TAF AMD
KART 071159Z 0712/0812 22007KT P6SM SCT015 BKN050
      TEMPO 0712/0714 BKN015
     FM071600 18007KT P6SM BKN050
     FM072000 VRB03KT P6SM SCT050 BKN080
     FM080000 08005KT P6SM BKN110=

USA.gov is the U.S. government's official web portal to all federal, state and local government web resources and services.